sensor_id;sensor_type;location;lat;lon;timestamp;temperature;humidity
2062;DHT22;11070;51.336;12.340;2022-09-01T00:01:53;15.00;1.00
2062;DHT22;11070;51.336;12.340;2022-09-01T00:04:22;15.00;1.00
2062;DHT22;11070;51.336;12.340;2022-09-01T00:06:52;15.00;1.00
2062;DHT22;11070;51.336;12.340;2022-09-01T00:09:21;15.00;1.00
2062;DHT22;11070;51.336;12.340;2022-09-01T00:11:51;15.00;1.00
2062;DHT22;11070;51.336;12.340;2022-09-01T00:14:23;15.00;1.00
2062;DHT22;11070;51.336;12.340;2022-09-01T00:16:49;14.90;1.00
2062;DHT22;11070;51.336;12.340;2022-09-01T00:19:15;15.00;1.00
2062;DHT22;11070;51.336;12.340;2022-09-01T00:21:43;15.00;1.00
2062;DHT22;11070;51.336;12.340;2022-09-01T00:24:10;15.10;1.00
2062;DHT22;11070;51.336;12.340;2022-09-01T00:26:38;15.10;1.00
2062;DHT22;11070;51.336;12.340;2022-09-01T00:29:04;15.00;1.00
2062;DHT22;11070;51.336;12.340;2022-09-01T00:31:30;15.10;1.00
2062;DHT22;11070;51.336;12.340;2022-09-01T00:33:55;15.10;1.00
2062;DHT22;11070;51.336;12.340;2022-09-01T00:36:22;15.10;1.00
2062;DHT22;11070;51.336;12.340;2022-09-01T00:38:48;15.10;1.00
2062;DHT22;11070;51.336;12.340;2022-09-01T00:41:16;15.10;1.00
2062;DHT22;11070;51.336;12.340;2022-09-01T00:43:49;15.10;1.00
2062;DHT22;11070;51.336;12.340;2022-09-01T00:46:18;15.00;1.00
2062;DHT22;11070;51.336;12.340;2022-09-01T00:48:46;15.00;1.00
2062;DHT22;11070;51.336;12.340;2022-09-01T00:51:13;15.00;1.00
2062;DHT22;11070;51.336;12.340;2022-09-01T00:53:40;15.00;1.00
2062;DHT22;11070;51.336;12.340;2022-09-01T00:56:08;15.00;1.00
2062;DHT22;11070;51.336;12.340;2022-09-01T00:58:35;14.90;1.00
2062;DHT22;11070;51.336;12.340;2022-09-01T01:01:04;14.90;1.00
2062;DHT22;11070;51.336;12.340;2022-09-01T01:03:30;14.90;1.00
2062;DHT22;11070;51.336;12.340;2022-09-01T01:05:57;14.80;1.00
2062;DHT22;11070;51.336;12.340;2022-09-01T01:08:34;14.80;1.00
2062;DHT22;11070;51.336;12.340;2022-09-01T01:11:07;14.80;1.00
2062;DHT22;11070;51.336;12.340;2022-09-01T01:14:05;14.70;18.40
2062;DHT22;11070;51.336;12.340;2022-09-01T01:16:38;14.70;64.30
2062;DHT22;11070;51.336;12.340;2022-09-01T01:19:24;14.70;99.90
2062;DHT22;11070;51.336;12.340;2022-09-01T01:22:41;14.60;99.90
2062;DHT22;11070;51.336;12.340;2022-09-01T01:25:33;14.50;99.90
2062;DHT22;11070;51.336;12.340;2022-09-01T01:28:10;14.50;99.90
2062;DHT22;11070;51.336;12.340;2022-09-01T01:30:40;14.40;99.90
2062;DHT22;11070;51.336;12.340;2022-09-01T01:33:08;14.40;1.00
2062;DHT22;11070;51.336;12.340;2022-09-01T01:35:34;14.40;1.00
2062;DHT22;11070;51.336;12.340;2022-09-01T01:38:00;14.40;1.00
2062;DHT22;11070;51.336;12.340;2022-09-01T01:40:27;14.30;1.00
2062;DHT22;11070;51.336;12.340;2022-09-01T01:42:54;14.30;1.00
2062;DHT22;11070;51.336;12.340;2022-09-01T01:45:22;14.30;1.00
2062;DHT22;11070;51.336;12.340;2022-09-01T01:47:50;14.30;1.00
2062;DHT22;11070;51.336;12.340;2022-09-01T01:50:18;14.30;1.00
2062;DHT22;11070;51.336;12.340;2022-09-01T01:52:44;14.20;24.50
2062;DHT22;11070;51.336;12.340;2022-09-01T01:55:10;14.20;1.00
2062;DHT22;11070;51.336;12.340;2022-09-01T01:57:38;14.20;20.80
2062;DHT22;11070;51.336;12.340;2022-09-01T02:00:07;14.20;99.90
2062;DHT22;11070;51.336;12.340;2022-09-01T02:02:33;14.10;99.90
2062;DHT22;11070;51.336;12.340;2022-09-01T02:04:59;14.10;99.90
2062;DHT22;11070;51.336;12.340;2022-09-01T02:07:25;14.00;1.00
2062;DHT22;11070;51.336;12.340;2022-09-01T02:09:52;13.90;1.00
2062;DHT22;11070;51.336;12.340;2022-09-01T02:12:17;13.90;1.00
2062;DHT22;11070;51.336;12.340;2022-09-01T02:14:44;13.90;1.00
2062;DHT22;11070;51.336;12.340;2022-09-01T02:17:10;13.90;1.00
2062;DHT22;11070;51.336;12.340;2022-09-01T02:19:35;13.90;1.00
2062;DHT22;11070;51.336;12.340;2022-09-01T02:22:06;13.80;2.00
2062;DHT22;11070;51.336;12.340;2022-09-01T02:24:36;13.80;99.90
2062;DHT22;11070;51.336;12.340;2022-09-01T02:27:02;13.70;1.00
2062;DHT22;11070;51.336;12.340;2022-09-01T02:29:29;13.80;99.90
2062;DHT22;11070;51.336;12.340;2022-09-01T02:31:56;13.70;99.90
2062;DHT22;11070;51.336;12.340;2022-09-01T02:34:23;13.70;1.00
2062;DHT22;11070;51.336;12.340;2022-09-01T02:36:52;13.70;1.00
2062;DHT22;11070;51.336;12.340;2022-09-01T02:39:23;13.60;1.00
2062;DHT22;11070;51.336;12.340;2022-09-01T02:41:50;13.60;99.90
2062;DHT22;11070;51.336;12.340;2022-09-01T02:44:16;13.60;99.90
2062;DHT22;11070;51.336;12.340;2022-09-01T02:46:47;13.50;99.90
2062;DHT22;11070;51.336;12.340;2022-09-01T02:49:18;13.50;1.00
2062;DHT22;11070;51.336;12.340;2022-09-01T02:51:47;13.50;1.00
2062;DHT22;11070;51.336;12.340;2022-09-01T02:54:14;13.50;1.00
2062;DHT22;11070;51.336;12.340;2022-09-01T02:56:42;13.50;1.00
2062;DHT22;11070;51.336;12.340;2022-09-01T02:59:10;13.40;99.90
2062;DHT22;11070;51.336;12.340;2022-09-01T03:01:38;13.40;1.00
2062;DHT22;11070;51.336;12.340;2022-09-01T03:04:05;13.40;1.00
2062;DHT22;11070;51.336;12.340;2022-09-01T03:06:32;13.40;1.00
2062;DHT22;11070;51.336;12.340;2022-09-01T03:08:59;13.30;99.90
2062;DHT22;11070;51.336;12.340;2022-09-01T03:11:27;13.30;99.90
2062;DHT22;11070;51.336;12.340;2022-09-01T03:13:53;13.30;1.00
2062;DHT22;11070;51.336;12.340;2022-09-01T03:16:19;13.20;1.00
2062;DHT22;11070;51.336;12.340;2022-09-01T03:18:46;13.20;99.90
2062;DHT22;11070;51.336;12.340;2022-09-01T03:21:12;13.20;1.00
2062;DHT22;11070;51.336;12.340;2022-09-01T03:23:42;13.10;1.00
2062;DHT22;11070;51.336;12.340;2022-09-01T03:26:09;13.10;1.00
2062;DHT22;11070;51.336;12.340;2022-09-01T03:28:34;13.00;54.30
2062;DHT22;11070;51.336;12.340;2022-09-01T03:31:02;13.00;99.90
2062;DHT22;11070;51.336;12.340;2022-09-01T03:33:29;12.90;99.90
2062;DHT22;11070;51.336;12.340;2022-09-01T03:35:56;12.90;99.90
2062;DHT22;11070;51.336;12.340;2022-09-01T03:38:22;12.90;99.90
2062;DHT22;11070;51.336;12.340;2022-09-01T03:40:54;12.90;99.90
2062;DHT22;11070;51.336;12.340;2022-09-01T03:43:23;12.90;99.90
2062;DHT22;11070;51.336;12.340;2022-09-01T03:45:52;12.80;99.90
2062;DHT22;11070;51.336;12.340;2022-09-01T03:48:20;12.80;99.90
2062;DHT22;11070;51.336;12.340;2022-09-01T03:50:46;12.70;99.90
2062;DHT22;11070;51.336;12.340;2022-09-01T03:53:14;12.70;99.90
2062;DHT22;11070;51.336;12.340;2022-09-01T03:55:43;12.70;99.90
2062;DHT22;11070;51.336;12.340;2022-09-01T03:58:12;12.70;1.00
2062;DHT22;11070;51.336;12.340;2022-09-01T04:00:42;12.70;1.00
2062;DHT22;11070;51.336;12.340;2022-09-01T04:03:10;12.60;1.00
2062;DHT22;11070;51.336;12.340;2022-09-01T04:05:41;12.60;1.00
2062;DHT22;11070;51.336;12.340;2022-09-01T04:08:08;12.60;1.00
2062;DHT22;11070;51.336;12.340;2022-09-01T04:10:41;12.50;1.00
2062;DHT22;11070;51.336;12.340;2022-09-01T04:13:08;12.60;1.00
2062;DHT22;11070;51.336;12.340;2022-09-01T04:15:36;12.60;1.00
2062;DHT22;11070;51.336;12.340;2022-09-01T04:18:02;12.60;1.00
2062;DHT22;11070;51.336;12.340;2022-09-01T04:20:41;12.50;1.00
2062;DHT22;11070;51.336;12.340;2022-09-01T04:23:24;12.60;1.00
2062;DHT22;11070;51.336;12.340;2022-09-01T04:25:56;12.60;1.00
2062;DHT22;11070;51.336;12.340;2022-09-01T04:28:29;12.60;1.00
2062;DHT22;11070;51.336;12.340;2022-09-01T04:31:00;12.60;1.00
2062;DHT22;11070;51.336;12.340;2022-09-01T04:33:31;12.50;1.00
2062;DHT22;11070;51.336;12.340;2022-09-01T04:36:02;12.50;1.00
2062;DHT22;11070;51.336;12.340;2022-09-01T04:38:28;12.50;1.00
2062;DHT22;11070;51.336;12.340;2022-09-01T04:40:54;12.60;1.00
2062;DHT22;11070;51.336;12.340;2022-09-01T04:43:22;12.60;1.00
2062;DHT22;11070;51.336;12.340;2022-09-01T04:45:49;12.70;1.00
2062;DHT22;11070;51.336;12.340;2022-09-01T04:48:18;12.70;1.00
2062;DHT22;11070;51.336;12.340;2022-09-01T04:50:47;12.70;1.00
2062;DHT22;11070;51.336;12.340;2022-09-01T04:53:15;12.70;1.00
2062;DHT22;11070;51.336;12.340;2022-09-01T04:55:43;12.70;1.00
2062;DHT22;11070;51.336;12.340;2022-09-01T04:58:11;12.80;1.00
2062;DHT22;11070;51.336;12.340;2022-09-01T05:00:38;12.80;1.00
2062;DHT22;11070;51.336;12.340;2022-09-01T05:03:05;12.90;1.00
2062;DHT22;11070;51.336;12.340;2022-09-01T05:05:44;13.00;1.00
2062;DHT22;11070;51.336;12.340;2022-09-01T05:08:12;13.10;99.90
2062;DHT22;11070;51.336;12.340;2022-09-01T05:10:41;13.10;99.90
2062;DHT22;11070;51.336;12.340;2022-09-01T05:13:09;13.20;99.90
2062;DHT22;11070;51.336;12.340;2022-09-01T05:15:40;13.30;99.90
2062;DHT22;11070;51.336;12.340;2022-09-01T05:18:15;13.40;18.20
2062;DHT22;11070;51.336;12.340;2022-09-01T05:20:49;13.40;1.00
2062;DHT22;11070;51.336;12.340;2022-09-01T05:23:15;13.50;1.00
2062;DHT22;11070;51.336;12.340;2022-09-01T05:25:45;13.60;99.90
2062;DHT22;11070;51.336;12.340;2022-09-01T05:28:18;13.70;1.00
2062;DHT22;11070;51.336;12.340;2022-09-01T05:30:46;13.80;99.90
2062;DHT22;11070;51.336;12.340;2022-09-01T05:33:13;13.80;1.00
2062;DHT22;11070;51.336;12.340;2022-09-01T05:35:54;13.90;1.00
2062;DHT22;11070;51.336;12.340;2022-09-01T05:38:20;14.00;73.10
2062;DHT22;11070;51.336;12.340;2022-09-01T05:40:59;14.10;1.00
2062;DHT22;11070;51.336;12.340;2022-09-01T05:43:29;14.20;90.30
2062;DHT22;11070;51.336;12.340;2022-09-01T05:45:57;14.30;22.00
2062;DHT22;11070;51.336;12.340;2022-09-01T05:48:23;14.40;1.00
2062;DHT22;11070;51.336;12.340;2022-09-01T05:50:50;14.50;66.60
2062;DHT22;11070;51.336;12.340;2022-09-01T05:53:21;14.50;99.90
2062;DHT22;11070;51.336;12.340;2022-09-01T05:55:51;14.60;92.00
2062;DHT22;11070;51.336;12.340;2022-09-01T05:58:22;14.80;1.00
2062;DHT22;11070;51.336;12.340;2022-09-01T06:00:51;14.90;99.90
2062;DHT22;11070;51.336;12.340;2022-09-01T06:03:19;15.10;86.00
2062;DHT22;11070;51.336;12.340;2022-09-01T06:05:44;15.10;1.00
2062;DHT22;11070;51.336;12.340;2022-09-01T06:08:13;15.30;1.00
2062;DHT22;11070;51.336;12.340;2022-09-01T06:10:40;15.60;99.90
2062;DHT22;11070;51.336;12.340;2022-09-01T06:13:09;15.80;99.90
2062;DHT22;11070;51.336;12.340;2022-09-01T06:15:38;16.20;1.00
2062;DHT22;11070;51.336;12.340;2022-09-01T06:18:08;16.50;1.00
2062;DHT22;11070;51.336;12.340;2022-09-01T06:20:40;16.90;1.00
2062;DHT22;11070;51.336;12.340;2022-09-01T06:23:08;17.10;1.00
2062;DHT22;11070;51.336;12.340;2022-09-01T06:25:37;17.30;1.00
2062;DHT22;11070;51.336;12.340;2022-09-01T06:28:04;17.40;1.00
2062;DHT22;11070;51.336;12.340;2022-09-01T06:30:30;17.50;1.00
2062;DHT22;11070;51.336;12.340;2022-09-01T06:33:01;17.60;1.00
2062;DHT22;11070;51.336;12.340;2022-09-01T06:35:27;17.70;1.00
2062;DHT22;11070;51.336;12.340;2022-09-01T06:37:55;17.70;1.00
2062;DHT22;11070;51.336;12.340;2022-09-01T06:40:23;17.70;1.00
2062;DHT22;11070;51.336;12.340;2022-09-01T06:42:50;17.90;1.00
2062;DHT22;11070;51.336;12.340;2022-09-01T06:45:19;18.00;1.00
2062;DHT22;11070;51.336;12.340;2022-09-01T06:47:46;18.00;1.00
2062;DHT22;11070;51.336;12.340;2022-09-01T06:50:15;18.30;1.00
2062;DHT22;11070;51.336;12.340;2022-09-01T06:52:41;18.30;99.90
2062;DHT22;11070;51.336;12.340;2022-09-01T06:55:09;18.40;99.90
2062;DHT22;11070;51.336;12.340;2022-09-01T06:57:35;18.60;99.90
2062;DHT22;11070;51.336;12.340;2022-09-01T07:00:07;18.60;99.90
2062;DHT22;11070;51.336;12.340;2022-09-01T07:02:37;18.60;99.90
2062;DHT22;11070;51.336;12.340;2022-09-01T07:05:04;18.70;99.90
2062;DHT22;11070;51.336;12.340;2022-09-01T07:07:32;18.90;99.90
2062;DHT22;11070;51.336;12.340;2022-09-01T07:09:59;19.10;99.90
2062;DHT22;11070;51.336;12.340;2022-09-01T07:12:24;19.60;99.90
2062;DHT22;11070;51.336;12.340;2022-09-01T07:14:50;19.80;99.90
2062;DHT22;11070;51.336;12.340;2022-09-01T07:17:17;20.10;99.90
2062;DHT22;11070;51.336;12.340;2022-09-01T07:19:43;20.20;99.90
2062;DHT22;11070;51.336;12.340;2022-09-01T07:22:09;20.30;99.90
2062;DHT22;11070;51.336;12.340;2022-09-01T07:24:35;20.30;99.90
2062;DHT22;11070;51.336;12.340;2022-09-01T07:27:01;20.50;99.90
2062;DHT22;11070;51.336;12.340;2022-09-01T07:29:26;20.70;99.90
2062;DHT22;11070;51.336;12.340;2022-09-01T07:31:52;20.80;99.90
2062;DHT22;11070;51.336;12.340;2022-09-01T07:34:20;20.90;99.90
2062;DHT22;11070;51.336;12.340;2022-09-01T07:36:46;21.00;99.90
2062;DHT22;11070;51.336;12.340;2022-09-01T07:39:13;20.90;99.90
2062;DHT22;11070;51.336;12.340;2022-09-01T07:41:40;20.70;99.90
2062;DHT22;11070;51.336;12.340;2022-09-01T07:44:08;20.60;99.90
2062;DHT22;11070;51.336;12.340;2022-09-01T07:46:37;20.40;99.90
2062;DHT22;11070;51.336;12.340;2022-09-01T07:49:02;20.40;99.90
2062;DHT22;11070;51.336;12.340;2022-09-01T07:51:29;20.40;99.90
2062;DHT22;11070;51.336;12.340;2022-09-01T07:53:56;20.60;99.90
2062;DHT22;11070;51.336;12.340;2022-09-01T07:56:23;20.50;99.90
2062;DHT22;11070;51.336;12.340;2022-09-01T07:58:50;20.40;99.90
2062;DHT22;11070;51.336;12.340;2022-09-01T08:01:22;20.30;99.90
2062;DHT22;11070;51.336;12.340;2022-09-01T08:03:51;20.50;99.90
2062;DHT22;11070;51.336;12.340;2022-09-01T08:06:20;20.70;99.90
2062;DHT22;11070;51.336;12.340;2022-09-01T08:08:47;20.70;99.90
2062;DHT22;11070;51.336;12.340;2022-09-01T08:11:23;20.70;99.90
2062;DHT22;11070;51.336;12.340;2022-09-01T08:13:51;20.70;99.90
2062;DHT22;11070;51.336;12.340;2022-09-01T08:16:18;20.70;99.90
2062;DHT22;11070;51.336;12.340;2022-09-01T08:18:45;20.80;99.90
2062;DHT22;11070;51.336;12.340;2022-09-01T08:21:12;20.80;99.90
2062;DHT22;11070;51.336;12.340;2022-09-01T08:23:38;20.90;99.90
2062;DHT22;11070;51.336;12.340;2022-09-01T08:26:05;21.20;99.90
2062;DHT22;11070;51.336;12.340;2022-09-01T08:28:32;21.40;99.90
2062;DHT22;11070;51.336;12.340;2022-09-01T08:30:58;21.50;99.90
2062;DHT22;11070;51.336;12.340;2022-09-01T08:33:25;21.70;99.90
2062;DHT22;11070;51.336;12.340;2022-09-01T08:35:51;22.00;99.90
2062;DHT22;11070;51.336;12.340;2022-09-01T08:38:16;22.30;99.90
2062;DHT22;11070;51.336;12.340;2022-09-01T08:40:50;22.70;99.90
2062;DHT22;11070;51.336;12.340;2022-09-01T08:45:53;22.90;99.90
2062;DHT22;11070;51.336;12.340;2022-09-01T08:48:35;23.20;99.90
2062;DHT22;11070;51.336;12.340;2022-09-01T08:51:19;23.70;99.90
2062;DHT22;11070;51.336;12.340;2022-09-01T08:53:51;23.90;99.90
2062;DHT22;11070;51.336;12.340;2022-09-01T08:56:20;24.50;99.90
2062;DHT22;11070;51.336;12.340;2022-09-01T08:58:47;24.80;99.90
2062;DHT22;11070;51.336;12.340;2022-09-01T09:01:30;25.10;99.90
2062;DHT22;11070;51.336;12.340;2022-09-01T09:04:18;25.50;99.90
2062;DHT22;11070;51.336;12.340;2022-09-01T09:07:38;25.90;99.90
2062;DHT22;11070;51.336;12.340;2022-09-01T09:09:48;25.90;99.90
2062;DHT22;11070;51.336;12.340;2022-09-01T09:15:21;26.20;99.90
2062;DHT22;11070;51.336;12.340;2022-09-01T09:17:58;26.50;99.90
2062;DHT22;11070;51.336;12.340;2022-09-01T09:20:27;26.30;99.90
2062;DHT22;11070;51.336;12.340;2022-09-01T09:22:54;25.90;99.90
2062;DHT22;11070;51.336;12.340;2022-09-01T09:25:20;26.00;99.90
2062;DHT22;11070;51.336;12.340;2022-09-01T09:27:47;27.20;99.90
2062;DHT22;11070;51.336;12.340;2022-09-01T09:30:24;28.70;99.90
2062;DHT22;11070;51.336;12.340;2022-09-01T09:35:32;31.80;99.90
2062;DHT22;11070;51.336;12.340;2022-09-01T09:41:02;33.40;99.90
2062;DHT22;11070;51.336;12.340;2022-09-01T09:43:30;34.10;99.90
2062;DHT22;11070;51.336;12.340;2022-09-01T09:49:31;35.30;99.90
2062;DHT22;11070;51.336;12.340;2022-09-01T09:52:16;36.00;99.90
2062;DHT22;11070;51.336;12.340;2022-09-01T09:55:02;36.80;99.90
2062;DHT22;11070;51.336;12.340;2022-09-01T09:57:30;36.90;99.90
2062;DHT22;11070;51.336;12.340;2022-09-01T10:00:17;36.80;99.90
2062;DHT22;11070;51.336;12.340;2022-09-01T10:02:45;36.00;99.90
2062;DHT22;11070;51.336;12.340;2022-09-01T10:07:48;35.90;99.90
2062;DHT22;11070;51.336;12.340;2022-09-01T10:13:13;35.20;99.90
2062;DHT22;11070;51.336;12.340;2022-09-01T10:15:42;34.50;99.90
2062;DHT22;11070;51.336;12.340;2022-09-01T10:18:21;34.50;99.90
2062;DHT22;11070;51.336;12.340;2022-09-01T10:21:08;35.90;99.90
2062;DHT22;11070;51.336;12.340;2022-09-01T10:23:35;37.00;99.90
2062;DHT22;11070;51.336;12.340;2022-09-01T10:26:15;36.90;99.90
2062;DHT22;11070;51.336;12.340;2022-09-01T10:28:53;36.90;99.90
2062;DHT22;11070;51.336;12.340;2022-09-01T10:31:21;36.20;99.90
2062;DHT22;11070;51.336;12.340;2022-09-01T10:33:48;36.10;99.90
2062;DHT22;11070;51.336;12.340;2022-09-01T10:36:14;36.40;99.90
2062;DHT22;11070;51.336;12.340;2022-09-01T10:38:42;36.50;99.90
2062;DHT22;11070;51.336;12.340;2022-09-01T10:41:07;36.80;99.90
2062;DHT22;11070;51.336;12.340;2022-09-01T10:48:43;37.30;99.90
2062;DHT22;11070;51.336;12.340;2022-09-01T10:53:40;36.70;99.90
2062;DHT22;11070;51.336;12.340;2022-09-01T10:56:39;34.10;99.90
2062;DHT22;11070;51.336;12.340;2022-09-01T11:04:17;29.60;99.90
2062;DHT22;11070;51.336;12.340;2022-09-01T11:06:59;29.10;99.90
2062;DHT22;11070;51.336;12.340;2022-09-01T11:15:36;26.90;99.90
2062;DHT22;11070;51.336;12.340;2022-09-01T11:21:22;27.20;99.90
2062;DHT22;11070;51.336;12.340;2022-09-01T11:23:49;27.50;99.90
2062;DHT22;11070;51.336;12.340;2022-09-01T11:26:46;27.50;99.90
2062;DHT22;11070;51.336;12.340;2022-09-01T11:29:50;27.10;99.90
2062;DHT22;11070;51.336;12.340;2022-09-01T11:32:17;26.50;99.90
2062;DHT22;11070;51.336;12.340;2022-09-01T11:34:44;26.10;99.90
2062;DHT22;11070;51.336;12.340;2022-09-01T11:37:15;26.40;99.90
2062;DHT22;11070;51.336;12.340;2022-09-01T11:39:47;26.70;99.90
2062;DHT22;11070;51.336;12.340;2022-09-01T11:42:23;26.50;99.90
2062;DHT22;11070;51.336;12.340;2022-09-01T11:47:44;25.80;99.90
2062;DHT22;11070;51.336;12.340;2022-09-01T11:50:24;25.80;99.90
2062;DHT22;11070;51.336;12.340;2022-09-01T11:55:32;25.80;99.90
2062;DHT22;11070;51.336;12.340;2022-09-01T11:57:59;26.00;99.90
2062;DHT22;11070;51.336;12.340;2022-09-01T12:00:31;26.20;99.90
2062;DHT22;11070;51.336;12.340;2022-09-01T12:02:58;26.30;99.90
2062;DHT22;11070;51.336;12.340;2022-09-01T12:05:31;26.20;99.90
2062;DHT22;11070;51.336;12.340;2022-09-01T12:07:57;26.10;99.90
2062;DHT22;11070;51.336;12.340;2022-09-01T12:10:34;25.90;99.90
2062;DHT22;11070;51.336;12.340;2022-09-01T12:15:31;25.40;99.90
2062;DHT22;11070;51.336;12.340;2022-09-01T12:18:17;25.20;99.90
2062;DHT22;11070;51.336;12.340;2022-09-01T12:20:45;25.20;99.90
2062;DHT22;11070;51.336;12.340;2022-09-01T12:25:49;25.20;99.90
2062;DHT22;11070;51.336;12.340;2022-09-01T12:28:15;25.30;99.90
2062;DHT22;11070;51.336;12.340;2022-09-01T12:30:42;25.30;99.90
2062;DHT22;11070;51.336;12.340;2022-09-01T12:33:11;25.10;99.90
2062;DHT22;11070;51.336;12.340;2022-09-01T12:35:38;24.90;99.90
2062;DHT22;11070;51.336;12.340;2022-09-01T12:40:48;24.80;99.90
2062;DHT22;11070;51.336;12.340;2022-09-01T12:43:35;24.80;99.90
2062;DHT22;11070;51.336;12.340;2022-09-01T12:46:40;24.80;99.90
2062;DHT22;11070;51.336;12.340;2022-09-01T12:49:21;24.80;99.90
2062;DHT22;11070;51.336;12.340;2022-09-01T12:52:04;25.10;99.90
2062;DHT22;11070;51.336;12.340;2022-09-01T12:54:30;25.20;99.90
2062;DHT22;11070;51.336;12.340;2022-09-01T12:56:56;25.20;99.90
2062;DHT22;11070;51.336;12.340;2022-09-01T12:59:25;25.20;99.90
2062;DHT22;11070;51.336;12.340;2022-09-01T13:01:51;25.20;99.90
2062;DHT22;11070;51.336;12.340;2022-09-01T13:06:45;25.10;99.90
2062;DHT22;11070;51.336;12.340;2022-09-01T13:09:11;25.10;99.90
2062;DHT22;11070;51.336;12.340;2022-09-01T13:11:37;25.20;99.90
2062;DHT22;11070;51.336;12.340;2022-09-01T13:14:03;25.20;99.90
2062;DHT22;11070;51.336;12.340;2022-09-01T13:16:29;25.40;99.90
2062;DHT22;11070;51.336;12.340;2022-09-01T13:18:55;25.70;99.90
2062;DHT22;11070;51.336;12.340;2022-09-01T13:21:21;26.00;99.90
2062;DHT22;11070;51.336;12.340;2022-09-01T13:23:47;26.10;99.90
2062;DHT22;11070;51.336;12.340;2022-09-01T13:26:12;26.00;99.90
2062;DHT22;11070;51.336;12.340;2022-09-01T13:28:38;26.10;99.90
2062;DHT22;11070;51.336;12.340;2022-09-01T13:31:04;26.10;99.90
2062;DHT22;11070;51.336;12.340;2022-09-01T13:33:32;26.00;99.90
2062;DHT22;11070;51.336;12.340;2022-09-01T13:35:58;25.90;99.90
2062;DHT22;11070;51.336;12.340;2022-09-01T13:38:23;27.00;99.90
2062;DHT22;11070;51.336;12.340;2022-09-01T13:40:50;28.30;99.90
2062;DHT22;11070;51.336;12.340;2022-09-01T13:43:21;29.80;99.90
2062;DHT22;11070;51.336;12.340;2022-09-01T13:45:48;30.90;99.90
2062;DHT22;11070;51.336;12.340;2022-09-01T13:48:14;31.50;99.90
2062;DHT22;11070;51.336;12.340;2022-09-01T13:50:41;31.70;99.90
2062;DHT22;11070;51.336;12.340;2022-09-01T13:53:06;31.60;99.90
2062;DHT22;11070;51.336;12.340;2022-09-01T13:55:35;31.60;99.90
2062;DHT22;11070;51.336;12.340;2022-09-01T13:58:02;31.10;99.90
2062;DHT22;11070;51.336;12.340;2022-09-01T14:00:32;30.90;99.90
2062;DHT22;11070;51.336;12.340;2022-09-01T14:03:05;30.60;99.90
2062;DHT22;11070;51.336;12.340;2022-09-01T14:05:33;30.30;99.90
2062;DHT22;11070;51.336;12.340;2022-09-01T14:08:00;29.90;99.90
2062;DHT22;11070;51.336;12.340;2022-09-01T14:10:28;30.20;99.90
2062;DHT22;11070;51.336;12.340;2022-09-01T14:12:53;31.10;99.90
2062;DHT22;11070;51.336;12.340;2022-09-01T14:15:19;31.50;99.90
2062;DHT22;11070;51.336;12.340;2022-09-01T14:17:48;31.60;99.90
2062;DHT22;11070;51.336;12.340;2022-09-01T14:20:18;31.40;99.90
2062;DHT22;11070;51.336;12.340;2022-09-01T14:22:45;31.20;99.90
2062;DHT22;11070;51.336;12.340;2022-09-01T14:25:11;30.70;99.90
2062;DHT22;11070;51.336;12.340;2022-09-01T14:27:37;30.50;99.90
2062;DHT22;11070;51.336;12.340;2022-09-01T14:30:08;30.10;99.90
2062;DHT22;11070;51.336;12.340;2022-09-01T14:32:35;30.10;99.90
2062;DHT22;11070;51.336;12.340;2022-09-01T14:35:01;29.80;99.90
2062;DHT22;11070;51.336;12.340;2022-09-01T14:37:27;29.60;99.90
2062;DHT22;11070;51.336;12.340;2022-09-01T14:39:54;29.10;99.90
2062;DHT22;11070;51.336;12.340;2022-09-01T14:42:20;28.40;99.90
2062;DHT22;11070;51.336;12.340;2022-09-01T14:44:48;27.80;99.90
2062;DHT22;11070;51.336;12.340;2022-09-01T14:47:14;27.30;99.90
2062;DHT22;11070;51.336;12.340;2022-09-01T14:49:41;26.80;99.90
2062;DHT22;11070;51.336;12.340;2022-09-01T14:52:07;26.30;99.90
2062;DHT22;11070;51.336;12.340;2022-09-01T14:54:34;26.00;99.90
2062;DHT22;11070;51.336;12.340;2022-09-01T14:57:01;26.00;99.90
2062;DHT22;11070;51.336;12.340;2022-09-01T14:59:27;26.50;99.90
2062;DHT22;11070;51.336;12.340;2022-09-01T15:01:53;27.30;99.90
2062;DHT22;11070;51.336;12.340;2022-09-01T15:04:19;27.90;99.90
2062;DHT22;11070;51.336;12.340;2022-09-01T15:06:45;28.30;99.90
2062;DHT22;11070;51.336;12.340;2022-09-01T15:09:11;28.60;99.90
2062;DHT22;11070;51.336;12.340;2022-09-01T15:11:36;29.20;99.90
2062;DHT22;11070;51.336;12.340;2022-09-01T15:14:02;29.30;99.90
2062;DHT22;11070;51.336;12.340;2022-09-01T15:16:28;29.40;99.90
2062;DHT22;11070;51.336;12.340;2022-09-01T15:18:54;29.70;99.90
2062;DHT22;11070;51.336;12.340;2022-09-01T15:21:25;29.50;99.90
2062;DHT22;11070;51.336;12.340;2022-09-01T15:23:53;29.20;99.90
2062;DHT22;11070;51.336;12.340;2022-09-01T15:26:19;29.10;99.90
2062;DHT22;11070;51.336;12.340;2022-09-01T15:28:46;29.00;99.90
2062;DHT22;11070;51.336;12.340;2022-09-01T15:31:13;29.30;99.90
2062;DHT22;11070;51.336;12.340;2022-09-01T15:33:40;29.10;99.90
2062;DHT22;11070;51.336;12.340;2022-09-01T15:36:06;28.90;99.90
2062;DHT22;11070;51.336;12.340;2022-09-01T15:38:33;28.70;99.90
2062;DHT22;11070;51.336;12.340;2022-09-01T15:40:59;28.60;99.90
2062;DHT22;11070;51.336;12.340;2022-09-01T15:43:29;28.10;99.90
2062;DHT22;11070;51.336;12.340;2022-09-01T15:45:57;27.60;99.90
2062;DHT22;11070;51.336;12.340;2022-09-01T15:48:24;27.70;99.90
2062;DHT22;11070;51.336;12.340;2022-09-01T15:50:50;27.80;99.90
2062;DHT22;11070;51.336;12.340;2022-09-01T15:53:16;27.60;99.90
2062;DHT22;11070;51.336;12.340;2022-09-01T15:55:45;26.90;99.90
2062;DHT22;11070;51.336;12.340;2022-09-01T15:58:13;26.80;99.90
2062;DHT22;11070;51.336;12.340;2022-09-01T16:00:40;26.50;99.90
2062;DHT22;11070;51.336;12.340;2022-09-01T16:03:06;26.20;99.90
2062;DHT22;11070;51.336;12.340;2022-09-01T16:05:34;25.80;99.90
2062;DHT22;11070;51.336;12.340;2022-09-01T16:08:02;25.60;99.90
2062;DHT22;11070;51.336;12.340;2022-09-01T16:10:29;25.20;99.90
2062;DHT22;11070;51.336;12.340;2022-09-01T16:12:55;24.80;99.90
2062;DHT22;11070;51.336;12.340;2022-09-01T16:15:23;24.70;99.90
2062;DHT22;11070;51.336;12.340;2022-09-01T16:18:07;24.50;99.90
2062;DHT22;11070;51.336;12.340;2022-09-01T16:23:38;24.00;99.90
2062;DHT22;11070;51.336;12.340;2022-09-01T16:26:06;23.80;99.90
2062;DHT22;11070;51.336;12.340;2022-09-01T16:28:35;23.50;99.90
2062;DHT22;11070;51.336;12.340;2022-09-01T16:31:11;23.10;99.90
2062;DHT22;11070;51.336;12.340;2022-09-01T16:33:45;22.90;99.90
2062;DHT22;11070;51.336;12.340;2022-09-01T16:39:08;22.70;99.90
2062;DHT22;11070;51.336;12.340;2022-09-01T16:41:58;22.80;99.90
2062;DHT22;11070;51.336;12.340;2022-09-01T16:44:38;22.80;99.90
2062;DHT22;11070;51.336;12.340;2022-09-01T16:49:50;22.60;99.90
2062;DHT22;11070;51.336;12.340;2022-09-01T16:52:28;22.50;99.90
2062;DHT22;11070;51.336;12.340;2022-09-01T16:55:15;22.30;99.90
2062;DHT22;11070;51.336;12.340;2022-09-01T17:00:20;22.00;99.90